createdAt,value
2022-11-23T00:01:40.361Z,66.07
2022-11-23T00:04:11.067Z,55.47
2022-11-23T00:06:41.862Z,55.17
2022-11-23T00:09:12.700Z,51.43
2022-11-23T00:11:41.410Z,57.33
2022-11-23T00:14:09.801Z,73.87
2022-11-23T00:16:50.372Z,65.70
2022-11-23T00:19:18.647Z,69.20
2022-11-23T00:21:48.793Z,49.50
2022-11-23T00:24:17.170Z,64.27
2022-11-23T00:26:45.860Z,57.53
2022-11-23T00:29:14.350Z,62.40
2022-11-23T00:31:43.230Z,67.23
2022-11-23T00:34:11.641Z,67.00
2022-11-23T00:36:40.639Z,55.77
2022-11-23T00:39:10.482Z,62.20
2022-11-23T00:41:39.125Z,51.73
2022-11-23T00:44:07.965Z,60.17
2022-11-23T00:46:36.747Z,59.87
2022-11-23T00:49:06.837Z,55.43
2022-11-23T00:51:37.824Z,72.83
2022-11-23T00:54:07.514Z,66.80
2022-11-23T00:56:37.534Z,73.07
2022-11-23T00:59:06.150Z,54.60
2022-11-23T01:01:37.418Z,72.47
2022-11-23T01:04:07.877Z,68.93
2022-11-23T01:06:39.894Z,51.70
2022-11-23T01:09:12.197Z,78.83
2022-11-23T01:11:42.293Z,59.90
2022-11-23T01:14:11.309Z,64.00
2022-11-23T01:16:41.876Z,56.30
2022-11-23T01:19:13.319Z,65.03
2022-11-23T01:21:42.616Z,70.93
2022-11-23T01:24:14.812Z,68.83
2022-11-23T01:26:45.617Z,60.17
2022-11-23T01:29:14.913Z,55.33
2022-11-23T01:31:46.707Z,74.20
2022-11-23T01:34:16.075Z,75.93
2022-11-23T01:36:46.420Z,88.90
2022-11-23T01:39:15.853Z,56.27
2022-11-23T01:41:47.253Z,76.87
2022-11-23T01:44:30.842Z,70.17
2022-11-23T01:47:01.047Z,62.43
2022-11-23T01:49:32.886Z,81.33
2022-11-23T01:52:05.407Z,64.87
2022-11-23T01:54:37.848Z,80.97
2022-11-23T01:57:11.530Z,58.17
2022-11-23T01:59:40.383Z,63.53
2022-11-23T02:02:09.361Z,71.63
2022-11-23T02:04:41.236Z,52.40
2022-11-23T02:07:10.517Z,65.80
2022-11-23T02:09:40.042Z,58.20
2022-11-23T02:12:12.701Z,74.10
2022-11-23T02:14:42.128Z,72.50
2022-11-23T02:17:10.851Z,59.03
2022-11-23T02:19:47.677Z,72.73
2022-11-23T02:22:24.021Z,65.00
2022-11-23T02:24:55.586Z,65.00
2022-11-23T02:27:26.218Z,70.23
2022-11-23T02:29:55.517Z,64.77
2022-11-23T02:32:26.147Z,75.97
2022-11-23T02:34:54.632Z,59.63
2022-11-23T02:37:23.392Z,85.30
2022-11-23T02:39:53.245Z,70.63
2022-11-23T02:42:22.394Z,73.00
2022-11-23T02:45:00.387Z,60.20
2022-11-23T02:47:29.146Z,71.90
2022-11-23T02:49:57.546Z,66.47
2022-11-23T02:52:26.546Z,75.27
2022-11-23T02:54:55.337Z,89.03
2022-11-23T02:57:24.261Z,87.17
2022-11-23T02:59:54.273Z,73.67
2022-11-23T03:02:23.248Z,78.80
2022-11-23T03:04:51.569Z,78.17
2022-11-23T03:07:20.360Z,86.27
2022-11-23T03:09:48.886Z,59.47
2022-11-23T03:12:17.706Z,70.37
2022-11-23T03:14:46.193Z,69.97
2022-11-23T03:17:16.296Z,80.07
2022-11-23T03:19:44.680Z,78.37
2022-11-23T03:22:13.501Z,78.70
2022-11-23T03:24:41.961Z,77.83
2022-11-23T03:27:10.678Z,67.00
2022-11-23T03:29:39.049Z,87.80
2022-11-23T03:32:07.801Z,86.43
2022-11-23T03:34:37.547Z,88.17
2022-11-23T03:37:06.399Z,90.57
2022-11-23T03:39:34.832Z,83.80
2022-11-23T03:42:03.822Z,69.93
2022-11-23T03:44:32.160Z,86.47
2022-11-23T03:47:00.906Z,80.07
2022-11-23T03:49:29.609Z,59.60
2022-11-23T03:52:00.022Z,70.27
2022-11-23T03:54:28.328Z,82.47
2022-11-23T03:56:57.019Z,82.27
2022-11-23T03:59:25.398Z,78.77
2022-11-23T04:01:54.127Z,74.37
2022-11-23T04:04:22.465Z,77.83
2022-11-23T04:06:51.160Z,76.07
2022-11-23T04:09:24.585Z,79.37
2022-11-23T04:11:53.746Z,73.40
2022-11-23T04:14:22.146Z,75.87
2022-11-23T04:16:50.814Z,72.03
2022-11-23T04:19:19.204Z,64.13
2022-11-23T04:21:48.056Z,79.30
2022-11-23T04:24:16.394Z,62.70
2022-11-23T04:26:46.802Z,60.20
2022-11-23T04:29:15.297Z,69.13
2022-11-23T04:31:44.005Z,65.47
2022-11-23T04:34:12.466Z,72.30
2022-11-23T04:36:41.161Z,78.77
2022-11-23T04:39:09.849Z,51.30
2022-11-23T04:41:38.432Z,60.07
2022-11-23T04:44:08.428Z,62.60
2022-11-23T04:46:37.117Z,70.20
2022-11-23T04:49:05.696Z,63.97
2022-11-23T04:51:34.469Z,107.33
2022-11-23T04:54:02.950Z,71.63
2022-11-23T04:56:31.566Z,79.07
2022-11-23T04:58:59.911Z,157.33
2022-11-23T05:01:30.035Z,106.90
2022-11-23T05:03:59.491Z,81.77
2022-11-23T05:06:28.430Z,78.63
2022-11-23T05:08:56.820Z,74.60
2022-11-23T05:11:27.140Z,81.97
2022-11-23T05:13:55.485Z,116.20
2022-11-23T05:16:24.515Z,70.97
2022-11-23T05:18:54.196Z,74.73
2022-11-23T05:21:22.941Z,77.20
2022-11-23T05:23:51.562Z,74.50
2022-11-23T05:26:20.226Z,69.03
2022-11-23T05:28:49.319Z,80.27
2022-11-23T05:31:18.576Z,85.83
2022-11-23T05:33:47.463Z,92.80
2022-11-23T05:36:17.919Z,53.07
2022-11-23T05:38:46.286Z,65.93
2022-11-23T05:41:14.873Z,93.10
2022-11-23T05:43:43.306Z,94.83
2022-11-23T05:46:11.917Z,83.17
2022-11-23T05:48:40.203Z,93.20
2022-11-23T05:51:08.753Z,82.83
2022-11-23T05:53:38.439Z,107.73
2022-11-23T05:56:08.304Z,93.90
2022-11-23T05:58:36.723Z,73.77
2022-11-23T06:01:05.584Z,79.57
2022-11-23T06:03:34.087Z,87.07
2022-11-23T06:06:02.757Z,71.50
2022-11-23T06:08:31.140Z,75.97
2022-11-23T06:11:03.191Z,70.67
2022-11-23T06:13:31.683Z,65.83
2022-11-23T06:16:00.445Z,90.03
2022-11-23T06:18:28.747Z,72.77
2022-11-23T06:21:00.248Z,77.20
2022-11-23T06:23:28.818Z,61.87
2022-11-23T06:26:02.536Z,66.77
2022-11-23T06:28:31.064Z,66.67
2022-11-23T06:31:03.537Z,84.67
2022-11-23T06:33:31.828Z,62.47
2022-11-23T06:36:02.045Z,71.13
2022-11-23T06:38:31.038Z,59.20
2022-11-23T06:41:00.238Z,74.37
2022-11-23T06:43:30.553Z,67.87
2022-11-23T06:45:59.649Z,68.70
2022-11-23T06:48:28.143Z,68.07
2022-11-23T06:50:59.342Z,67.73
2022-11-23T06:53:27.780Z,73.20
2022-11-23T06:56:00.252Z,71.80
2022-11-23T06:58:30.146Z,57.63
2022-11-23T07:01:02.760Z,62.83
2022-11-23T07:03:31.493Z,61.67
2022-11-23T07:06:00.597Z,72.70
2022-11-23T07:08:29.099Z,69.37
2022-11-23T07:11:01.663Z,64.30
2022-11-23T07:13:31.596Z,64.87
2022-11-23T07:16:00.699Z,71.57
2022-11-23T07:18:29.618Z,68.67
2022-11-23T07:20:59.738Z,66.20
2022-11-23T07:23:28.332Z,52.90
2022-11-23T07:25:57.115Z,63.10
2022-11-23T07:28:25.689Z,53.67
2022-11-23T07:30:56.211Z,54.23
2022-11-23T07:33:24.707Z,65.40
2022-11-23T07:35:53.606Z,59.77
2022-11-23T07:38:21.945Z,62.23
2022-11-23T07:40:51.711Z,79.77
2022-11-23T07:43:20.043Z,68.67
2022-11-23T07:45:49.014Z,68.93
2022-11-23T07:48:19.149Z,49.67
2022-11-23T07:50:47.608Z,60.80
2022-11-23T07:53:16.110Z,58.00
2022-11-23T07:55:44.643Z,72.60
2022-11-23T07:58:13.135Z,57.70
2022-11-23T08:00:42.226Z,56.10
2022-11-23T08:03:30.553Z,59.07
2022-11-23T08:06:01.417Z,52.97
2022-11-23T08:08:30.264Z,55.00
2022-11-23T08:10:58.884Z,49.30
2022-11-23T08:13:27.542Z,56.20
2022-11-23T08:15:56.267Z,62.33
2022-11-23T08:18:25.399Z,58.20
2022-11-23T08:20:53.912Z,60.97
2022-11-23T08:23:25.685Z,64.63
2022-11-23T08:25:54.422Z,59.37
2022-11-23T08:28:22.962Z,57.27
2022-11-23T08:30:51.835Z,50.90
2022-11-23T08:33:20.617Z,64.77
2022-11-23T08:35:49.423Z,52.07
2022-11-23T08:38:18.013Z,69.90
2022-11-23T08:40:48.227Z,50.87
2022-11-23T08:43:16.728Z,56.57
2022-11-23T08:45:45.321Z,62.17
2022-11-23T08:48:13.605Z,52.70
2022-11-23T08:50:42.152Z,58.93
2022-11-23T08:53:11.023Z,58.53
2022-11-23T08:55:39.707Z,62.17
2022-11-23T08:58:13.346Z,61.53
2022-11-23T09:00:42.919Z,67.30
2022-11-23T09:03:12.316Z,55.33
2022-11-23T09:05:41.135Z,59.37
2022-11-23T09:08:10.206Z,55.70
2022-11-23T09:10:38.892Z,59.10
2022-11-23T09:13:09.290Z,69.47
2022-11-23T09:15:37.595Z,56.80
2022-11-23T09:18:06.651Z,50.40
2022-11-23T09:20:35.337Z,63.67
2022-11-23T09:23:06.858Z,57.57
2022-11-23T09:25:37.703Z,49.23
2022-11-23T09:28:06.368Z,61.93
2022-11-23T09:30:36.314Z,42.90
2022-11-23T09:33:05.262Z,50.50
2022-11-23T09:35:33.769Z,55.47
2022-11-23T09:38:02.746Z,56.37
2022-11-23T09:40:34.494Z,38.73
2022-11-23T09:43:25.761Z,58.27
2022-11-23T09:45:58.533Z,48.40
2022-11-23T09:48:44.529Z,41.67
2022-11-23T09:51:17.685Z,39.80
2022-11-23T09:53:50.205Z,44.23
2022-11-23T09:56:21.516Z,54.57
2022-11-23T09:58:55.312Z,45.80
2022-11-23T10:01:27.025Z,51.80
2022-11-23T10:03:55.914Z,44.07
2022-11-23T10:06:26.614Z,41.83
2022-11-23T10:09:24.583Z,64.07
2022-11-23T10:12:15.684Z,63.13
2022-11-23T10:14:59.521Z,57.37
2022-11-23T10:17:44.999Z,54.57
2022-11-23T10:20:30.129Z,52.00
2022-11-23T10:23:00.994Z,43.47
2022-11-23T10:25:39.326Z,42.67
2022-11-23T10:28:13.791Z,48.67
2022-11-23T10:30:42.809Z,51.40
2022-11-23T10:33:22.872Z,63.93
2022-11-23T10:35:51.729Z,56.90
2022-11-23T10:38:22.141Z,55.63
2022-11-23T10:41:02.398Z,41.97
2022-11-23T10:43:36.172Z,59.87
2022-11-23T10:46:25.487Z,48.13
2022-11-23T10:48:56.201Z,38.33
2022-11-23T10:51:33.303Z,59.07
2022-11-23T10:54:05.632Z,57.73
2022-11-23T10:56:35.650Z,64.53
2022-11-23T10:59:04.671Z,52.60
2022-11-23T11:01:33.668Z,54.23
2022-11-23T11:04:05.740Z,70.13
2022-11-23T11:06:36.272Z,52.90
2022-11-23T11:09:12.213Z,61.07
2022-11-23T11:11:49.085Z,49.57
2022-11-23T11:14:20.728Z,45.53
2022-11-23T11:16:50.896Z,47.03
2022-11-23T11:19:28.635Z,53.13
2022-11-23T11:21:58.577Z,58.57
2022-11-23T11:24:33.426Z,52.83
2022-11-23T11:27:05.470Z,46.80
2022-11-23T11:29:39.148Z,48.67
2022-11-23T11:32:13.828Z,47.43
2022-11-23T11:34:48.846Z,48.43
2022-11-23T11:37:25.932Z,49.40
2022-11-23T11:39:59.073Z,38.43
2022-11-23T11:42:34.739Z,55.07
2022-11-23T11:45:06.270Z,35.83
2022-11-23T11:47:40.781Z,48.67
2022-11-23T11:50:22.505Z,47.43
2022-11-23T11:53:00.046Z,50.70
2022-11-23T11:55:32.378Z,44.43
2022-11-23T11:58:06.586Z,45.10
2022-11-23T12:00:42.112Z,44.70
2022-11-23T12:03:25.816Z,41.37
2022-11-23T12:06:00.487Z,53.40
2022-11-23T12:08:37.058Z,50.30
2022-11-23T12:11:07.286Z,47.27
2022-11-23T12:13:38.348Z,38.07
2022-11-23T12:16:16.369Z,38.73
2022-11-23T12:19:03.662Z,41.53
2022-11-23T12:22:13.411Z,42.93
2022-11-23T12:25:11.410Z,41.77
2022-11-23T12:27:50.494Z,42.20
2022-11-23T12:30:25.713Z,41.37
2022-11-23T12:33:17.590Z,44.13
2022-11-23T12:35:55.959Z,44.97
2022-11-23T12:38:32.298Z,41.30
2022-11-23T12:41:16.845Z,57.30
2022-11-23T12:44:09.121Z,38.03
2022-11-23T12:46:45.154Z,30.87
2022-11-23T12:49:26.512Z,35.23
2022-11-23T12:52:02.425Z,50.27
2022-11-23T12:54:52.425Z,41.37
2022-11-23T12:57:29.203Z,47.43
2022-11-23T13:00:03.353Z,45.23
2022-11-23T13:03:02.399Z,46.83
2022-11-23T13:05:54.321Z,48.50
2022-11-23T13:08:40.557Z,45.37
2022-11-23T13:11:23.446Z,43.83
2022-11-23T13:14:08.875Z,37.80
2022-11-23T13:16:59.568Z,37.23
2022-11-23T13:19:44.647Z,36.13
2022-11-23T13:22:18.544Z,39.43
2022-11-23T13:25:03.548Z,34.07
2022-11-23T13:27:44.026Z,46.67
2022-11-23T13:30:45.699Z,35.57
2022-11-23T13:33:38.082Z,38.67
2022-11-23T13:36:15.278Z,44.77
2022-11-23T13:38:46.891Z,63.63
2022-11-23T13:41:55.763Z,45.03
2022-11-23T13:44:29.067Z,47.43
2022-11-23T13:47:01.880Z,49.57
2022-11-23T13:49:42.445Z,50.53
2022-11-23T13:52:31.842Z,43.17
2022-11-23T13:55:19.577Z,36.83
2022-11-23T13:58:28.884Z,43.13
2022-11-23T14:01:00.305Z,47.07
2022-11-23T14:03:50.298Z,47.57
2022-11-23T14:06:36.096Z,32.73
2022-11-23T14:09:12.425Z,37.43
2022-11-23T14:11:50.383Z,46.27
2022-11-23T14:14:23.720Z,35.17
2022-11-23T14:17:28.501Z,61.30
2022-11-23T14:20:26.385Z,43.27
2022-11-23T14:23:08.636Z,42.83
2022-11-23T14:25:49.052Z,46.77
2022-11-23T14:28:29.648Z,43.43
2022-11-23T14:31:10.831Z,50.13
2022-11-23T14:33:49.031Z,42.50
2022-11-23T14:36:30.379Z,44.80
2022-11-23T14:39:21.721Z,64.47
2022-11-23T14:41:53.383Z,74.90
2022-11-23T14:44:25.626Z,99.33
2022-11-23T14:47:05.537Z,98.63
2022-11-23T14:49:35.700Z,102.57
2022-11-23T14:52:06.559Z,101.30
2022-11-23T14:54:36.451Z,103.93
2022-11-23T14:57:06.321Z,68.20
2022-11-23T14:59:38.532Z,90.60
2022-11-23T15:02:16.871Z,71.43
2022-11-23T15:05:01.860Z,76.47
2022-11-23T15:07:53.577Z,55.80
2022-11-23T15:10:34.915Z,53.13
2022-11-23T15:13:03.512Z,48.87
2022-11-23T15:15:34.132Z,55.23
2022-11-23T15:18:04.134Z,48.97
2022-11-23T15:20:37.098Z,57.80
2022-11-23T15:23:06.297Z,55.03
2022-11-23T15:25:34.778Z,54.63
2022-11-23T15:28:03.541Z,44.40
2022-11-23T15:30:32.398Z,40.83
2022-11-23T15:33:03.911Z,40.33
2022-11-23T15:35:36.717Z,42.93
2022-11-23T15:38:08.894Z,43.07
2022-11-23T15:40:38.979Z,50.37
2022-11-23T15:43:13.019Z,50.53
2022-11-23T15:46:03.533Z,53.40
2022-11-23T15:48:35.284Z,64.33
2022-11-23T15:51:08.490Z,79.37
2022-11-23T15:53:47.485Z,76.77
2022-11-23T15:56:23.646Z,94.63
2022-11-23T15:58:54.263Z,80.57
2022-11-23T16:01:23.428Z,92.83
2022-11-23T16:03:55.736Z,93.47
2022-11-23T16:06:34.574Z,96.27
2022-11-23T16:09:10.090Z,106.73
2022-11-23T16:11:46.501Z,75.80
2022-11-23T16:14:18.561Z,74.27
2022-11-23T16:16:49.110Z,71.80
2022-11-23T16:19:24.216Z,57.63
2022-11-23T16:22:01.957Z,69.10
2022-11-23T16:24:34.404Z,51.67
2022-11-23T16:27:12.912Z,51.40
2022-11-23T16:29:42.511Z,53.60
2022-11-23T16:32:25.029Z,58.97
2022-11-23T16:34:54.534Z,61.80
2022-11-23T16:37:26.397Z,76.33
2022-11-23T16:39:55.494Z,77.13
2022-11-23T16:42:23.968Z,57.37
2022-11-23T16:44:52.950Z,68.20
2022-11-23T16:47:24.521Z,74.20
2022-11-23T16:49:54.277Z,73.23
2022-11-23T16:52:24.862Z,71.47
2022-11-23T16:54:53.875Z,66.70
2022-11-23T16:57:29.910Z,59.57
2022-11-23T17:00:00.470Z,57.97
2022-11-23T17:02:29.177Z,60.47
2022-11-23T17:04:58.248Z,63.83
2022-11-23T17:07:28.530Z,64.77
2022-11-23T17:09:59.244Z,69.10
2022-11-23T17:12:28.127Z,69.50
2022-11-23T17:14:57.125Z,68.70
2022-11-23T17:17:25.534Z,72.30
2022-11-23T17:19:56.675Z,57.10
2022-11-23T17:22:29.826Z,73.83
2022-11-23T17:24:58.841Z,77.57
2022-11-23T17:27:27.503Z,64.17
2022-11-23T17:29:59.424Z,70.27
2022-11-23T17:32:28.953Z,70.33
2022-11-23T17:34:58.423Z,79.27
2022-11-23T17:37:27.525Z,68.50
2022-11-23T17:39:57.738Z,74.50
2022-11-23T17:42:26.234Z,72.90
2022-11-23T17:44:55.228Z,69.27
2022-11-23T17:47:28.959Z,62.13
2022-11-23T17:49:59.249Z,54.43
2022-11-23T17:52:27.663Z,59.53
2022-11-23T17:54:57.778Z,76.13
2022-11-23T17:57:27.867Z,75.27
2022-11-23T18:00:01.848Z,72.67
2022-11-23T18:02:31.717Z,74.13
2022-11-23T18:05:00.680Z,83.83
2022-11-23T18:07:29.245Z,84.60
2022-11-23T18:09:59.642Z,65.27
2022-11-23T18:12:28.100Z,74.37
2022-11-23T18:14:56.778Z,83.40
2022-11-23T18:17:25.448Z,74.93
2022-11-23T18:19:54.361Z,79.53
2022-11-23T18:22:22.826Z,85.80
2022-11-23T18:24:51.739Z,66.50
2022-11-23T18:27:21.684Z,69.93
2022-11-23T18:29:50.658Z,61.40
2022-11-23T18:32:19.621Z,59.80
2022-11-23T18:34:48.863Z,51.90
2022-11-23T18:37:17.293Z,57.13
2022-11-23T18:39:46.090Z,57.00
2022-11-23T18:42:15.119Z,56.10
2022-11-23T18:44:45.205Z,59.63
2022-11-23T18:47:13.584Z,70.27
2022-11-23T18:49:42.219Z,72.57
2022-11-23T18:52:14.060Z,64.30
2022-11-23T18:54:42.917Z,53.87
2022-11-23T18:57:12.197Z,57.27
2022-11-23T19:02:30.668Z,55.67
2022-11-23T19:04:59.912Z,59.93
2022-11-23T19:07:29.253Z,67.73
2022-11-23T19:09:58.333Z,62.40
2022-11-23T19:12:26.638Z,60.73
2022-11-23T19:14:55.356Z,50.97
2022-11-23T19:17:24.221Z,55.10
2022-11-23T19:19:54.327Z,54.57
2022-11-23T19:22:22.784Z,58.53
2022-11-23T19:24:51.633Z,58.97
2022-11-23T19:27:20.077Z,61.47
2022-11-23T19:29:48.977Z,82.40
2022-11-23T19:32:17.652Z,93.10
2022-11-23T19:34:46.336Z,78.77
2022-11-23T19:37:16.297Z,87.97
2022-11-23T19:39:45.322Z,97.37
2022-11-23T19:42:13.802Z,84.97
2022-11-23T19:44:43.121Z,76.67
2022-11-23T19:47:16.393Z,95.07
2022-11-23T19:49:47.875Z,72.60
2022-11-23T19:52:17.582Z,86.43
2022-11-23T19:54:46.279Z,74.43
2022-11-23T19:57:14.715Z,57.13
2022-11-23T19:59:43.688Z,60.67
2022-11-23T20:02:23.253Z,73.27
2022-11-23T20:04:52.986Z,72.07
2022-11-23T20:07:23.137Z,76.83
2022-11-23T20:09:53.497Z,62.37
2022-11-23T20:12:21.934Z,73.27
2022-11-23T20:14:50.560Z,75.87
2022-11-23T20:17:18.933Z,67.35
2022-11-23T20:19:47.546Z,59.80
2022-11-23T20:22:16.333Z,67.63
2022-11-23T20:24:46.880Z,67.20
2022-11-23T20:27:15.633Z,66.83
2022-11-23T20:29:44.572Z,65.97
2022-11-23T20:32:13.149Z,63.93
2022-11-23T20:34:41.748Z,61.77
2022-11-23T20:37:10.126Z,66.67
2022-11-23T20:39:38.765Z,65.70
2022-11-23T20:42:08.507Z,56.43
2022-11-23T20:44:40.950Z,75.67
2022-11-23T20:47:42.173Z,60.23
2022-11-23T20:50:11.471Z,60.57
2022-11-23T20:52:40.171Z,59.63
2022-11-23T20:55:09.847Z,61.00
2022-11-23T20:57:39.778Z,53.10
2022-11-23T21:00:10.329Z,67.43
2022-11-23T21:02:39.144Z,57.33
2022-11-23T21:05:08.765Z,71.13
2022-11-23T21:07:37.269Z,72.50
2022-11-23T21:10:06.782Z,68.53
2022-11-23T21:12:52.404Z,73.50
2022-11-23T21:15:22.558Z,66.30
2022-11-23T21:17:51.015Z,74.90
2022-11-23T21:20:19.834Z,66.70
2022-11-23T21:22:48.277Z,66.47
2022-11-23T21:25:17.238Z,62.30
2022-11-23T21:27:45.597Z,63.17
2022-11-23T21:30:15.098Z,60.50
2022-11-23T21:32:46.147Z,71.77
2022-11-23T21:35:15.063Z,55.43
2022-11-23T21:37:43.464Z,50.03
2022-11-23T21:40:13.626Z,54.43
2022-11-23T21:42:44.671Z,45.43
2022-11-23T21:45:14.104Z,47.30
2022-11-23T21:47:42.460Z,49.83
2022-11-23T21:50:12.766Z,46.97
2022-11-23T21:52:41.237Z,46.87
2022-11-23T21:55:10.991Z,44.10
2022-11-23T21:57:39.647Z,49.33
2022-11-23T22:00:10.348Z,44.67
2022-11-23T22:06:20.622Z,41.13
2022-11-23T22:08:53.054Z,43.33
2022-11-23T22:11:24.432Z,45.50
2022-11-23T22:13:56.375Z,49.40
2022-11-23T22:16:27.821Z,49.90
2022-11-23T22:18:57.910Z,49.00
2022-11-23T22:21:29.914Z,41.67
2022-11-23T22:24:00.548Z,45.90
2022-11-23T22:26:29.732Z,42.07
2022-11-23T22:29:02.661Z,43.43
2022-11-23T22:31:33.373Z,43.50
2022-11-23T22:34:05.815Z,37.77
2022-11-23T22:36:36.254Z,49.73
2022-11-23T22:39:07.434Z,60.67
2022-11-23T22:41:38.161Z,43.00
2022-11-23T22:44:25.180Z,48.10
2022-11-23T22:46:54.868Z,45.07
2022-11-23T22:49:24.922Z,49.97
2022-11-23T22:51:55.618Z,34.03
2022-11-23T22:54:24.929Z,42.43
2022-11-23T22:56:54.130Z,38.30
2022-11-23T22:59:23.518Z,40.80
2022-11-23T23:01:52.709Z,41.80
2022-11-23T23:04:21.944Z,42.47
2022-11-23T23:06:51.254Z,36.70
2022-11-23T23:09:21.927Z,40.40
2022-11-23T23:11:51.117Z,46.00
2022-11-23T23:14:20.423Z,47.07
2022-11-23T23:16:49.448Z,42.53
2022-11-23T23:19:18.950Z,43.13
2022-11-23T23:21:48.131Z,49.37
2022-11-23T23:24:17.510Z,50.70
2022-11-23T23:26:48.077Z,59.80
2022-11-23T23:29:17.380Z,52.27
2022-11-23T23:31:46.574Z,50.33
2022-11-23T23:34:16.068Z,49.57
2022-11-23T23:36:45.468Z,53.93
2022-11-23T23:39:17.965Z,47.50
2022-11-23T23:41:48.592Z,51.90
2022-11-23T23:44:18.189Z,50.27
2022-11-23T23:46:47.212Z,51.97
2022-11-23T23:49:17.747Z,52.10
2022-11-23T23:51:51.448Z,56.37
2022-11-23T23:54:20.944Z,51.63
2022-11-23T23:56:51.586Z,59.40
2022-11-23T23:59:23.761Z,50.63
